Time;durP1;ratioP1;P1;durP2;ratioP2;P2;SDS_P1;SDS_P2;PMS_P1;PMS_P2;Temp;Humidity;BMP_temperature;BMP_pressure;BME280_temperature;BME280_humidity;BME280_pressure;Samples;Min_cycle;Max_cycle;Signal;HPM_P1;HPM_P2
2022/10/04 00:01:29;;;;;;;14.98;6.55;;;13.10;99.90;;;;;;5141440;27;20047;-55
2022/10/04 00:04:13;;;;;;;16.50;6.60;;;13.10;99.90;;;;;;5125919;27;20126;-57
2022/10/04 00:06:48;;;;;;;9.77;6.18;;;13.10;99.90;;;;;;5114445;27;20043;-56
2022/10/04 00:09:18;;;;;;;16.60;6.68;;;13.10;99.90;;;;;;5128894;27;20039;-53
2022/10/04 00:11:46;;;;;;;13.15;6.00;;;13.10;99.90;;;;;;5132991;27;20039;-56
2022/10/04 00:14:21;;;;;;;10.68;5.75;;;13.10;99.90;;;;;;5112416;28;20039;-57
2022/10/04 00:16:48;;;;;;;11.68;6.47;;;13.10;99.90;;;;;;5148524;27;20037;-56
2022/10/04 00:19:13;;;;;;;17.52;7.05;;;13.10;99.90;;;;;;5123909;27;20055;-55
2022/10/04 00:21:57;;;;;;;14.37;6.13;;;13.10;99.90;;;;;;5143252;27;20084;-55
2022/10/04 00:24:30;;;;;;;9.50;5.53;;;13.10;99.90;;;;;;5128093;27;20560;-54
2022/10/04 00:27:25;;;;;;;15.07;6.28;;;13.00;99.90;;;;;;5134883;27;20039;-55
2022/10/04 00:30:02;;;;;;;15.40;6.97;;;13.00;99.90;;;;;;5122158;27;20041;-55
2022/10/04 00:32:40;;;;;;;13.55;6.15;;;13.00;99.90;;;;;;5133960;27;20111;-56
2022/10/04 00:35:24;;;;;;;14.45;6.25;;;13.00;99.90;;;;;;5137487;27;20066;-55
2022/10/04 00:38:14;;;;;;;9.27;6.90;;;13.00;99.90;;;;;;5133392;27;20060;-56
2022/10/04 00:40:48;;;;;;;12.60;7.55;;;12.90;99.90;;;;;;5131642;27;20148;-57
2022/10/04 00:43:27;;;;;;;12.68;6.78;;;12.90;99.90;;;;;;5152756;27;20110;-55
2022/10/04 00:45:59;;;;;;;15.38;7.55;;;12.90;99.90;;;;;;5141438;27;20048;-55
2022/10/04 00:48:44;;;;;;;13.77;6.03;;;12.90;99.90;;;;;;5142965;27;20045;-54
2022/10/04 00:51:26;;;;;;;12.50;6.63;;;12.80;99.90;;;;;;5138543;27;20038;-53
2022/10/04 00:53:58;;;;;;;10.40;7.18;;;12.80;99.90;;;;;;5152622;27;20038;-55
2022/10/04 00:56:31;;;;;;;14.20;7.30;;;12.80;99.90;;;;;;5145166;27;20079;-56
2022/10/04 00:58:56;;;;;;;17.20;7.47;;;12.80;99.90;;;;;;5146276;27;20402;-55
2022/10/04 01:01:26;;;;;;;21.20;7.80;;;12.80;99.90;;;;;;5140141;27;20031;-56
2022/10/04 01:03:56;;;;;;;14.90;6.43;;;12.80;99.90;;;;;;5140057;27;20031;-53
2022/10/04 01:06:23;;;;;;;11.38;7.15;;;12.80;99.90;;;;;;5131479;27;20046;-56
2022/10/04 01:08:52;;;;;;;12.90;7.00;;;12.70;99.90;;;;;;5143961;27;20035;-54
2022/10/04 01:11:23;;;;;;;11.38;7.72;;;12.70;99.90;;;;;;5135221;27;20046;-54
2022/10/04 01:14:27;;;;;;;18.25;7.70;;;12.70;99.90;;;;;;5144757;27;20043;-53
2022/10/04 01:16:53;;;;;;;18.27;7.78;;;12.60;99.90;;;;;;5128480;27;20038;-54
2022/10/04 01:19:28;;;;;;;13.83;7.90;;;12.60;99.90;;;;;;5140456;27;20197;-55
2022/10/04 01:21:58;;;;;;;15.75;7.28;;;12.60;99.90;;;;;;5133215;27;20280;-55
2022/10/04 01:24:24;;;;;;;19.73;7.35;;;12.70;99.90;;;;;;5132746;27;20047;-53
2022/10/04 01:26:50;;;;;;;14.40;6.90;;;12.60;99.90;;;;;;5132642;27;20525;-55
2022/10/04 01:29:25;;;;;;;17.92;7.47;;;12.70;99.90;;;;;;5132093;27;20553;-56
2022/10/04 01:31:53;;;;;;;17.05;6.95;;;12.70;99.90;;;;;;5113429;27;20122;-53
2022/10/04 01:34:21;;;;;;;15.32;7.53;;;12.70;99.90;;;;;;5132032;27;20110;-55
2022/10/04 01:36:50;;;;;;;18.73;7.38;;;12.70;99.90;;;;;;5133620;27;20035;-54
2022/10/04 01:39:18;;;;;;;15.10;7.22;;;12.70;99.90;;;;;;5097639;27;20118;-54
2022/10/04 01:41:55;;;;;;;11.82;6.05;;;12.70;99.90;;;;;;5132036;27;20035;-53
2022/10/04 01:44:27;;;;;;;11.82;6.50;;;12.70;99.90;;;;;;5129986;27;20043;-53
2022/10/04 01:46:55;;;;;;;13.50;7.32;;;12.70;99.90;;;;;;5132414;27;20039;-53
2022/10/04 01:49:29;;;;;;;19.45;6.97;;;12.70;99.90;;;;;;5132861;27;20046;-55
2022/10/04 01:52:09;;;;;;;16.50;7.93;;;12.70;99.90;;;;;;5137376;27;20471;-56
2022/10/04 01:54:41;;;;;;;15.32;7.07;;;12.70;99.90;;;;;;5143902;27;20035;-57
2022/10/04 01:57:14;;;;;;;18.00;7.72;;;12.70;99.90;;;;;;5131347;27;20084;-56
2022/10/04 01:59:56;;;;;;;11.13;8.00;;;12.70;99.90;;;;;;5149998;27;20038;-54
2022/10/04 02:02:57;;;;;;;18.98;8.35;;;12.70;99.90;;;;;;5141468;27;20080;-54
2022/10/04 02:05:56;;;;;;;11.50;7.28;;;12.60;99.90;;;;;;5135925;27;20471;-53
2022/10/04 02:08:29;;;;;;;14.23;7.43;;;12.60;99.90;;;;;;5086946;27;20479;-54
2022/10/04 02:10:56;;;;;;;19.27;9.10;;;12.60;99.90;;;;;;5093067;28;20507;-56
2022/10/04 02:13:26;;;;;;;16.80;8.07;;;12.60;99.90;;;;;;5137880;27;20530;-56
2022/10/04 02:15:52;;;;;;;26.42;9.48;;;12.60;99.90;;;;;;5125403;27;20389;-54
2022/10/04 02:18:20;;;;;;;19.17;8.75;;;12.60;99.90;;;;;;5132446;27;20093;-55
2022/10/04 02:20:48;;;;;;;15.55;8.98;;;12.60;99.90;;;;;;5139095;27;20073;-55
2022/10/04 02:23:17;;;;;;;23.42;8.85;;;12.60;99.90;;;;;;5124113;27;20039;-54
2022/10/04 02:25:43;;;;;;;27.08;9.10;;;12.60;99.90;;;;;;5128494;27;20054;-53
2022/10/04 02:28:10;;;;;;;15.45;8.23;;;12.60;99.90;;;;;;5140974;27;20106;-54
2022/10/04 02:30:38;;;;;;;22.77;9.48;;;12.50;99.90;;;;;;5111376;28;20032;-55
2022/10/04 02:33:04;;;;;;;15.68;8.88;;;12.60;99.90;;;;;;5138420;27;20032;-55
2022/10/04 02:35:35;;;;;;;;;;;12.60;99.90;;;;;;5131623;27;20038;-57
2022/10/04 02:38:17;;;;;;;13.57;8.93;;;12.60;99.90;;;;;;5142503;27;19922;-56
2022/10/04 02:40:56;;;;;;;13.90;8.05;;;12.60;99.90;;;;;;5132614;27;20503;-55
2022/10/04 02:43:27;;;;;;;16.40;8.77;;;12.60;99.90;;;;;;5138207;27;20030;-55
2022/10/04 02:46:25;;;;;;;18.83;8.40;;;12.60;99.90;;;;;;5138529;27;20092;-54
2022/10/04 02:48:55;;;;;;;12.77;7.78;;;12.50;99.90;;;;;;5132339;27;20141;-53
2022/10/04 02:51:30;;;;;;;15.63;8.50;;;12.50;99.90;;;;;;5140263;27;20046;-56
2022/10/04 02:54:36;;;;;;;20.00;8.77;;;12.50;99.90;;;;;;5142867;27;20292;-54
2022/10/04 02:57:02;;;;;;;9.60;8.15;;;12.40;99.90;;;;;;5112124;27;20122;-55
2022/10/04 02:59:30;;;;;;;10.85;7.50;;;12.40;99.90;;;;;;5100473;27;20035;-55
2022/10/04 03:02:00;;;;;;;22.50;10.30;;;12.40;99.90;;;;;;5138958;27;20143;-55
2022/10/04 03:04:37;;;;;;;14.10;8.73;;;12.40;99.90;;;;;;5147676;27;20049;-55
2022/10/04 03:07:06;;;;;;;16.85;8.48;;;12.30;99.90;;;;;;5125437;27;20128;-53
2022/10/04 03:09:35;;;;;;;20.35;9.55;;;12.30;99.90;;;;;;5146007;27;20039;-55
2022/10/04 03:12:03;;;;;;;25.40;10.27;;;12.30;99.90;;;;;;5141630;27;20075;-54
2022/10/04 03:14:30;;;;;;;20.30;10.93;;;12.20;99.90;;;;;;5134240;27;20039;-54
2022/10/04 03:16:59;;;;;;;15.73;9.90;;;12.20;99.90;;;;;;5117726;27;20118;-54
2022/10/04 03:19:27;;;;;;;20.70;10.60;;;12.20;99.90;;;;;;5131004;27;20039;-55
2022/10/04 03:21:56;;;;;;;15.50;10.82;;;12.10;99.90;;;;;;5112597;27;20039;-56
2022/10/04 03:24:35;;;;;;;24.48;11.13;;;12.10;99.90;;;;;;5130975;27;20103;-54
2022/10/04 03:27:06;;;;;;;19.08;11.10;;;12.10;99.90;;;;;;5117852;27;20441;-56
2022/10/04 03:29:33;;;;;;;16.38;10.88;;;12.00;99.90;;;;;;5092485;28;20051;-56
2022/10/04 03:32:03;;;;;;;16.67;11.27;;;12.10;99.90;;;;;;5110795;28;20424;-54
2022/10/04 03:34:35;;;;;;;17.73;12.80;;;12.00;99.90;;;;;;5110558;28;20315;-53
2022/10/04 03:37:02;;;;;;;20.60;12.23;;;12.00;99.90;;;;;;5110592;28;20047;-52
2022/10/04 03:39:33;;;;;;;25.27;13.13;;;11.90;99.90;;;;;;5127686;28;20039;-55
2022/10/04 03:42:06;;;;;;;19.10;12.40;;;11.90;99.90;;;;;;5130716;28;20043;-55
2022/10/04 03:44:32;;;;;;;21.67;13.25;;;11.90;99.90;;;;;;5129906;28;20041;-55
2022/10/04 03:46:58;;;;;;;26.90;14.07;;;11.90;99.90;;;;;;5130656;28;20050;-55
2022/10/04 03:49:32;;;;;;;23.15;13.82;;;11.80;99.90;;;;;;5130470;27;20039;-54
2022/10/04 03:52:00;;;;;;;24.70;13.18;;;11.80;99.90;;;;;;5132689;27;20085;-54
2022/10/04 03:54:26;;;;;;;22.15;13.45;;;11.80;99.90;;;;;;5146073;27;20077;-55
2022/10/04 03:56:53;;;;;;;25.65;14.57;;;11.70;99.90;;;;;;5144189;27;20039;-55
2022/10/04 03:59:21;;;;;;;22.38;13.32;;;11.80;99.90;;;;;;5133118;27;20034;-54
2022/10/04 04:01:54;;;;;;;20.42;12.65;;;11.80;99.90;;;;;;5133158;27;20049;-55
2022/10/04 04:04:45;;;;;;;25.17;13.90;;;11.70;99.90;;;;;;5132701;27;20516;-53
2022/10/04 04:07:24;;;;;;;21.88;13.60;;;11.70;99.90;;;;;;5143913;27;20045;-55
2022/10/04 04:10:05;;;;;;;23.98;13.90;;;11.70;99.90;;;;;;5125328;27;20480;-53
2022/10/04 04:12:42;;;;;;;21.20;12.90;;;11.70;99.90;;;;;;5137074;27;20065;-53
2022/10/04 04:15:12;;;;;;;21.27;13.20;;;11.70;99.90;;;;;;5148017;27;20461;-54
2022/10/04 04:17:51;;;;;;;20.15;13.13;;;11.60;99.90;;;;;;5126210;27;20034;-53
2022/10/04 04:20:30;;;;;;;26.33;14.48;;;11.60;99.90;;;;;;5118428;27;20050;-53
2022/10/04 04:23:10;;;;;;;20.65;13.35;;;11.60;99.90;;;;;;5123254;27;20113;-55
2022/10/04 04:25:38;;;;;;;24.13;13.93;;;11.60;99.90;;;;;;5148332;27;20035;-56
2022/10/04 04:28:23;;;;;;;30.42;15.32;;;11.50;99.90;;;;;;5142294;27;20076;-54
2022/10/04 04:30:54;;;;;;;23.00;14.10;;;11.50;99.90;;;;;;5121711;27;20107;-54
2022/10/04 04:33:36;;;;;;;18.52;13.45;;;11.50;99.90;;;;;;5138705;27;20039;-53
2022/10/04 04:36:05;;;;;;;19.42;14.18;;;11.40;99.90;;;;;;5125767;27;20027;-56
2022/10/04 04:38:31;;;;;;;22.92;14.05;;;11.40;99.90;;;;;;5149410;27;20074;-54
2022/10/04 04:41:09;;;;;;;19.35;13.32;;;11.40;99.90;;;;;;5130132;27;20054;-53
2022/10/04 04:43:35;;;;;;;15.15;12.35;;;11.40;99.90;;;;;;5138766;27;20495;-55
2022/10/04 04:46:01;;;;;;;17.15;13.25;;;11.40;99.90;;;;;;5134023;27;20296;-56
2022/10/04 04:48:26;;;;;;;27.77;13.77;;;11.40;99.90;;;;;;5144129;27;20102;-54
2022/10/04 04:50:56;;;;;;;16.97;13.63;;;11.30;99.90;;;;;;5142864;27;20169;-56
2022/10/04 04:53:27;;;;;;;18.70;14.90;;;11.30;99.90;;;;;;5141532;27;20066;-54
2022/10/04 04:56:02;;;;;;;26.63;14.85;;;11.30;99.90;;;;;;5127939;27;20062;-55
2022/10/04 04:58:41;;;;;;;25.20;16.55;;;11.20;99.90;;;;;;5135810;27;20126;-54
2022/10/04 05:01:27;;;;;;;19.40;14.10;;;11.20;99.90;;;;;;5139551;27;20491;-55
2022/10/04 05:04:08;;;;;;;26.92;15.07;;;11.10;99.90;;;;;;5128769;27;20491;-55
2022/10/04 05:06:35;;;;;;;28.92;16.67;;;11.20;99.90;;;;;;5138472;27;20039;-54
2022/10/04 05:09:03;;;;;;;24.70;17.02;;;11.10;99.90;;;;;;5144253;27;20043;-53
2022/10/04 05:11:31;;;;;;;23.15;15.48;;;11.10;99.90;;;;;;5134825;27;20062;-54
2022/10/04 05:14:05;;;;;;;34.38;17.17;;;11.10;99.90;;;;;;5130573;27;20034;-53
2022/10/04 05:16:49;;;;;;;28.60;16.88;;;11.10;99.90;;;;;;5149659;27;20099;-53
2022/10/04 05:19:23;;;;;;;23.55;17.60;;;11.10;99.90;;;;;;5129975;27;20041;-54
2022/10/04 05:21:51;;;;;;;25.02;16.02;;;11.00;99.90;;;;;;5138911;27;20047;-53
2022/10/04 05:24:33;;;;;;;24.23;16.63;;;11.10;99.90;;;;;;5131935;27;20038;-53
2022/10/04 05:27:05;;;;;;;28.00;17.45;;;11.00;99.90;;;;;;5133405;27;20122;-53
2022/10/04 05:29:36;;;;;;;24.35;15.65;;;11.00;99.90;;;;;;5122374;27;20061;-55
2022/10/04 05:32:23;;;;;;;29.45;16.33;;;11.00;99.90;;;;;;5113186;28;20059;-55
2022/10/04 05:34:50;;;;;;;23.42;16.35;;;11.00;99.90;;;;;;5113526;27;20059;-54
2022/10/04 05:37:22;;;;;;;26.75;16.60;;;11.00;99.90;;;;;;5112018;28;20078;-54
2022/10/04 05:40:13;;;;;;;28.23;17.50;;;11.00;99.90;;;;;;5112857;28;20044;-53
2022/10/04 05:42:44;;;;;;;26.67;16.48;;;11.00;99.90;;;;;;5112179;28;20086;-55
2022/10/04 05:45:18;;;;;;;24.23;17.27;;;10.90;99.90;;;;;;5124055;27;20051;-55
2022/10/04 05:47:47;;;;;;;24.38;16.73;;;10.90;99.90;;;;;;5117609;27;20406;-54
2022/10/04 05:50:40;;;;;;;27.08;17.67;;;10.90;99.90;;;;;;5112389;27;20040;-54
2022/10/04 05:53:31;;;;;;;24.40;16.92;;;10.90;99.90;;;;;;5121206;27;20419;-53
2022/10/04 05:56:18;;;;;;;22.38;15.93;;;10.90;99.90;;;;;;5134646;27;20063;-53
2022/10/04 05:59:08;;;;;;;26.30;16.33;;;10.90;99.90;;;;;;5142953;27;20062;-54
2022/10/04 06:02:01;;;;;;;22.17;14.20;;;10.90;99.90;;;;;;5132197;27;20042;-53
2022/10/04 06:04:52;;;;;;;25.42;16.90;;;10.90;99.90;;;;;;5129314;27;20440;-54
2022/10/04 06:07:33;;;;;;;21.88;15.77;;;10.90;99.90;;;;;;5132051;27;20492;-54
2022/10/04 06:10:08;;;;;;;21.70;14.52;;;10.80;99.90;;;;;;5132369;27;20084;-56
2022/10/04 06:12:54;;;;;;;44.35;16.90;;;10.80;99.90;;;;;;5130962;27;20488;-54
2022/10/04 06:16:03;;;;;;;24.77;16.92;;;10.80;99.90;;;;;;5128750;27;20035;-54
2022/10/04 06:18:35;;;;;;;24.05;16.88;;;10.80;99.90;;;;;;5111622;28;20123;-53
2022/10/04 06:21:27;;;;;;;24.52;15.93;;;10.80;99.90;;;;;;5119120;27;20418;-53
2022/10/04 06:23:52;;;;;;;19.42;15.02;;;10.90;99.90;;;;;;5125011;27;20031;-53
2022/10/04 06:26:23;;;;;;;21.93;16.43;;;10.90;99.90;;;;;;5132180;27;20043;-55
2022/10/04 06:29:03;;;;;;;30.33;14.77;;;11.00;99.90;;;;;;5135881;27;20062;-58
2022/10/04 06:31:53;;;;;;;19.60;15.55;;;11.10;99.90;;;;;;5131998;27;20496;-54
2022/10/04 06:34:44;;;;;;;22.23;13.57;;;11.30;99.90;;;;;;5143814;27;20038;-56
2022/10/04 06:37:24;;;;;;;25.25;14.88;;;11.40;99.90;;;;;;5131812;27;20043;-52
2022/10/04 06:40:20;;;;;;;21.17;13.30;;;11.50;99.90;;;;;;5132599;27;20039;-53
2022/10/04 06:43:05;;;;;;;30.83;14.35;;;11.50;99.90;;;;;;5139062;27;20143;-54
2022/10/04 06:46:06;;;;;;;21.75;14.48;;;11.70;99.90;;;;;;5150949;27;20062;-54
2022/10/04 06:48:56;;;;;;;22.17;14.80;;;11.90;99.90;;;;;;5125832;27;20047;-53
2022/10/04 06:51:37;;;;;;;23.52;14.73;;;12.00;99.90;;;;;;5131713;27;20039;-56
2022/10/04 06:54:14;;;;;;;22.13;14.60;;;12.10;99.90;;;;;;5139536;27;20111;-56
2022/10/04 06:57:17;;;;;;;17.58;12.98;;;12.10;99.90;;;;;;5152286;27;20039;-54
2022/10/04 07:00:12;;;;;;;19.77;13.65;;;12.10;99.90;;;;;;5139964;27;20042;-57
2022/10/04 07:03:08;;;;;;;20.92;12.95;;;12.20;99.90;;;;;;5131008;27;20042;-56
2022/10/04 07:05:57;;;;;;;24.95;13.13;;;12.20;99.90;;;;;;5130490;27;20038;-56
2022/10/04 07:08:35;;;;;;;20.92;13.38;;;12.20;99.90;;;;;;5112469;27;20132;-57
2022/10/04 07:11:04;;;;;;;17.63;11.68;;;12.20;99.90;;;;;;5112865;27;20039;-55
2022/10/04 07:13:40;;;;;;;15.15;13.05;;;12.10;99.90;;;;;;5124624;27;20031;-55
2022/10/04 07:16:23;;;;;;;16.80;11.87;;;12.10;99.90;;;;;;5119174;27;20051;-56
2022/10/04 07:19:18;;;;;;;19.23;11.85;;;12.10;99.90;;;;;;5119181;27;20822;-54
2022/10/04 07:22:05;;;;;;;14.40;10.60;;;12.20;99.90;;;;;;5117050;27;20449;-54
2022/10/04 07:24:43;;;;;;;28.40;12.27;;;12.40;99.90;;;;;;5117157;27;20043;-56
2022/10/04 07:27:15;;;;;;;20.35;12.02;;;12.50;99.90;;;;;;5116579;28;20043;-54
2022/10/04 07:29:45;;;;;;;16.27;11.07;;;12.60;99.90;;;;;;5109858;28;20062;-54
2022/10/04 07:32:35;;;;;;;18.67;11.35;;;12.70;99.90;;;;;;5114075;27;20028;-55
2022/10/04 07:35:11;;;;;;;17.60;10.35;;;12.80;99.90;;;;;;5114765;27;20096;-54
2022/10/04 07:38:09;;;;;;;22.05;10.95;;;12.90;99.90;;;;;;5113101;27;20581;-56
2022/10/04 07:41:06;;;;;;;20.25;11.80;;;12.90;99.90;;;;;;5111502;28;20523;-56
2022/10/04 07:43:54;;;;;;;15.13;10.87;;;13.00;99.90;;;;;;5115018;27;20081;-57
2022/10/04 07:46:49;;;;;;;22.30;10.35;;;13.00;99.90;;;;;;5117291;27;20532;-57
2022/10/04 07:49:18;;;;;;;14.75;9.80;;;13.00;99.90;;;;;;5117272;27;20049;-53
2022/10/04 07:52:21;;;;;;;18.35;11.00;;;12.90;99.90;;;;;;5112644;27;20504;-54
2022/10/04 07:54:55;;;;;;;14.90;9.82;;;12.90;99.90;;;;;;5093763;27;20039;-54
2022/10/04 07:58:00;;;;;;;19.50;9.23;;;12.90;99.90;;;;;;5114096;27;20048;-55
2022/10/04 08:00:48;;;;;;;15.00;9.15;;;12.90;99.90;;;;;;5121555;27;20047;-55
2022/10/04 08:03:26;;;;;;;15.93;9.75;;;12.80;99.90;;;;;;5118692;27;20047;-55
2022/10/04 08:06:06;;;;;;;10.60;9.32;;;12.80;99.90;;;;;;5121837;27;20126;-55
2022/10/04 08:08:49;;;;;;;16.63;9.75;;;12.90;99.90;;;;;;5107136;27;20435;-56
2022/10/04 08:11:37;;;;;;;15.50;9.43;;;13.00;99.90;;;;;;5122763;27;20034;-56
2022/10/04 08:14:18;;;;;;;12.95;8.80;;;13.10;99.90;;;;;;5116308;27;20040;-56
2022/10/04 08:17:17;;;;;;;10.05;8.10;;;13.10;99.90;;;;;;5111892;27;20499;-55
2022/10/04 08:20:05;;;;;;;17.33;9.68;;;13.20;99.90;;;;;;5112363;27;20488;-56
2022/10/04 08:22:46;;;;;;;18.40;8.68;;;13.40;99.90;;;;;;5113064;27;20384;-55
2022/10/04 08:25:31;;;;;;;23.83;9.27;;;13.50;99.90;;;;;;5116952;27;20122;-56
2022/10/04 08:31:29;;;;;;;17.48;9.27;;;13.70;99.90;;;;;;5108078;27;20036;-54
2022/10/04 08:34:20;;;;;;;12.25;8.32;;;13.80;99.90;;;;;;5116355;27;20088;-58
2022/10/04 08:36:48;;;;;;;19.90;9.45;;;13.80;99.90;;;;;;5112974;27;20047;-55
2022/10/04 08:39:39;;;;;;;12.55;8.95;;;13.90;99.90;;;;;;5112477;27;20035;-56
2022/10/04 08:42:23;;;;;;;15.07;8.15;;;13.80;99.90;;;;;;5118893;27;20514;-56
2022/10/04 08:44:55;;;;;;;16.98;9.32;;;13.90;99.90;;;;;;5112048;27;20385;-56
2022/10/04 08:47:46;;;;;;;15.73;8.38;;;13.90;99.90;;;;;;5113002;27;20423;-54
2022/10/04 08:50:54;;;;;;;18.60;8.52;;;14.00;99.90;;;;;;5098378;28;20036;-56
2022/10/04 08:53:37;;;;;;;13.50;8.10;;;14.20;99.90;;;;;;5115735;27;20567;-57
2022/10/04 08:56:28;;;;;;;12.95;8.00;;;14.30;99.90;;;;;;5118946;27;20043;-56
2022/10/04 08:59:28;;;;;;;15.82;8.13;;;14.50;99.90;;;;;;5085882;27;20047;-55
2022/10/04 09:02:11;;;;;;;13.10;8.02;;;14.50;99.90;;;;;;5096412;27;20047;-57
2022/10/04 09:05:13;;;;;;;14.27;8.02;;;14.60;99.90;;;;;;5112118;27;20043;-57
2022/10/04 09:07:58;;;;;;;12.23;7.30;;;14.50;99.90;;;;;;5106706;27;20420;-55
2022/10/04 09:10:35;;;;;;;25.95;7.82;;;14.50;99.90;;;;;;5132990;27;20483;-56
2022/10/04 09:13:03;;;;;;;15.70;7.45;;;14.40;99.90;;;;;;5127655;27;20047;-57
2022/10/04 09:15:47;;;;;;;14.55;7.25;;;14.40;99.90;;;;;;5129138;27;20022;-57
2022/10/04 09:18:50;;;;;;;9.80;6.68;;;14.50;99.90;;;;;;5129928;27;20114;-53
2022/10/04 09:21:19;;;;;;;17.75;7.38;;;14.60;99.90;;;;;;5130020;27;20042;-53
2022/10/04 09:24:10;;;;;;;13.15;7.80;;;14.80;99.90;;;;;;5110092;27;20540;-54
2022/10/04 09:27:04;;;;;;;13.88;7.00;;;14.90;99.90;;;;;;5128714;27;20073;-54
2022/10/04 09:29:44;;;;;;;12.35;7.55;;;15.00;99.90;;;;;;5133835;27;20620;-55
2022/10/04 09:32:47;;;;;;;11.60;7.60;;;15.10;99.90;;;;;;5129599;27;20031;-57
2022/10/04 09:35:31;;;;;;;11.07;7.28;;;15.20;99.90;;;;;;5127948;27;20036;-54
2022/10/04 09:38:20;;;;;;;12.38;6.93;;;15.30;99.90;;;;;;5127435;27;20035;-53
2022/10/04 09:41:22;;;;;;;12.10;6.40;;;15.30;99.90;;;;;;5128952;27;20381;-53
2022/10/04 09:44:28;;;;;;;14.35;6.55;;;15.40;99.90;;;;;;5126436;27;20286;-57
2022/10/04 09:47:15;;;;;;;12.75;6.57;;;15.50;99.90;;;;;;5110744;27;20484;-56
2022/10/04 09:50:00;;;;;;;12.95;7.75;;;15.60;99.90;;;;;;5124938;27;20118;-55
2022/10/04 09:52:38;;;;;;;11.52;6.85;;;15.60;99.90;;;;;;5132663;27;20035;-55
2022/10/04 09:55:36;;;;;;;13.18;7.25;;;15.70;99.90;;;;;;5127374;27;20047;-55
2022/10/04 09:58:32;;;;;;;10.90;7.93;;;15.90;99.90;;;;;;5127048;27;20118;-53
2022/10/04 10:01:34;;;;;;;12.48;5.85;;;16.00;99.90;;;;;;5127834;27;20289;-57
2022/10/04 10:04:18;;;;;;;12.98;6.13;;;15.90;99.90;;;;;;5100408;27;20197;-55
2022/10/04 10:06:59;;;;;;;10.57;6.00;;;16.00;99.90;;;;;;5127960;27;20042;-57
2022/10/04 10:15:59;;;;;;;12.10;5.35;;;16.20;99.90;;;;;;5127919;27;20043;-54
2022/10/04 10:18:38;;;;;;;16.20;5.20;;;16.30;99.90;;;;;;5133682;27;20087;-54
2022/10/04 10:21:32;;;;;;;11.35;5.10;;;16.20;99.90;;;;;;5127064;27;20037;-57
2022/10/04 10:24:29;;;;;;;8.80;5.45;;;16.30;99.90;;;;;;5126669;27;20400;-56
2022/10/04 10:27:36;;;;;;;10.38;5.15;;;16.30;99.90;;;;;;5107485;27;20042;-55
2022/10/04 10:30:15;;;;;;;13.18;5.85;;;16.40;99.90;;;;;;5126619;27;20067;-57
2022/10/04 10:33:03;;;;;;;9.90;4.43;;;16.50;99.90;;;;;;5127265;27;20043;-55
2022/10/04 10:36:00;;;;;;;14.82;5.47;;;16.50;99.90;;;;;;5116621;27;20107;-56
2022/10/04 10:38:44;;;;;;;9.73;4.70;;;16.60;99.90;;;;;;5114940;27;20385;-54
2022/10/04 10:41:36;;;;;;;10.68;4.97;;;16.70;99.90;;;;;;5116083;27;20027;-56
2022/10/04 10:44:09;;;;;;;11.20;5.05;;;16.60;99.90;;;;;;5121347;27;20032;-56
2022/10/04 10:47:07;;;;;;;9.50;4.88;;;16.60;99.90;;;;;;5110287;27;20077;-53
2022/10/04 10:49:46;;;;;;;6.75;4.45;;;16.60;99.90;;;;;;5072669;28;20059;-55
2022/10/04 10:52:53;;;;;;;10.52;4.47;;;16.70;99.90;;;;;;5114668;27;20102;-52
2022/10/04 10:55:56;;;;;;;13.77;4.90;;;16.70;99.90;;;;;;5114544;27;20032;-54
2022/10/04 10:58:50;;;;;;;10.35;5.13;;;16.80;99.90;;;;;;5114317;27;20035;-54
2022/10/04 11:01:34;;;;;;;15.18;5.38;;;16.90;99.90;;;;;;5117352;27;20039;-55
2022/10/04 11:04:37;;;;;;;7.35;4.60;;;17.00;99.90;;;;;;5116925;27;20039;-55
2022/10/04 11:07:15;;;;;;;10.00;4.75;;;17.00;99.90;;;;;;5113632;27;20044;-54
2022/10/04 11:10:02;;;;;;;9.32;4.35;;;17.00;99.90;;;;;;5109838;27;20100;-56
2022/10/04 11:12:49;;;;;;;9.38;4.78;;;17.10;99.90;;;;;;5109642;28;20032;-56
2022/10/04 11:16:03;;;;;;;10.23;4.40;;;17.10;99.90;;;;;;5115739;27;20301;-54
2022/10/04 11:19:01;;;;;;;7.85;4.93;;;17.10;99.90;;;;;;5121063;27;20038;-54
2022/10/04 11:22:06;;;;;;;6.95;4.47;;;17.10;99.90;;;;;;5112308;27;20046;-55
2022/10/04 11:25:00;;;;;;;8.38;4.47;;;17.20;99.90;;;;;;5081114;28;20058;-55
2022/10/04 11:27:44;;;;;;;8.80;4.63;;;17.20;99.90;;;;;;5111503;27;20043;-54
2022/10/04 11:30:25;;;;;;;8.48;4.50;;;17.30;99.90;;;;;;5110754;28;20407;-56
2022/10/04 11:33:28;;;;;;;8.95;4.40;;;17.30;99.90;;;;;;5113052;28;20095;-54
2022/10/04 11:35:59;;;;;;;10.52;3.25;;;17.40;99.90;;;;;;5127165;28;20035;-55
2022/10/04 11:38:34;;;;;;;7.53;2.72;;;17.40;99.90;;;;;;5114483;28;20036;-54
2022/10/04 11:41:20;;;;;;;7.03;3.10;;;17.40;99.90;;;;;;5109490;28;20071;-54
2022/10/04 11:44:00;;;;;;;11.63;3.55;;;17.40;99.80;;;;;;5109050;28;20066;-54
2022/10/04 11:46:52;;;;;;;8.10;3.38;;;17.30;99.60;;;;;;5117627;28;20032;-55
2022/10/04 11:49:36;;;;;;;7.13;2.63;;;17.30;99.90;;;;;;5117685;28;20028;-54
2022/10/04 11:52:08;;;;;;;9.68;2.83;;;17.40;99.90;;;;;;5113037;28;20477;-54
2022/10/04 11:54:46;;;;;;;7.97;3.25;;;17.50;99.80;;;;;;5109257;28;20123;-54
2022/10/04 11:57:22;;;;;;;8.55;3.20;;;17.60;99.70;;;;;;5117764;28;20096;-53
2022/10/04 11:59:54;;;;;;;5.97;2.65;;;17.60;98.90;;;;;;5115488;27;20106;-54
2022/10/04 12:02:43;;;;;;;8.40;3.05;;;17.50;98.80;;;;;;5116473;28;20468;-55
2022/10/04 12:05:39;;;;;;;12.43;3.20;;;17.50;98.70;;;;;;5095043;28;20039;-54
2022/10/04 12:08:37;;;;;;;7.40;2.83;;;17.60;98.60;;;;;;5113609;28;20057;-56
2022/10/04 12:11:14;;;;;;;8.07;3.25;;;17.60;98.40;;;;;;5105587;28;20097;-54
2022/10/04 12:13:58;;;;;;;9.80;3.88;;;17.70;99.00;;;;;;5115227;28;20043;-54
2022/10/04 12:16:36;;;;;;;7.85;2.63;;;17.70;99.20;;;;;;5116920;28;20050;-56
2022/10/04 12:19:19;;;;;;;7.78;3.20;;;17.80;98.30;;;;;;5109065;28;20062;-56
2022/10/04 12:21:59;;;;;;;11.68;4.40;;;17.70;98.50;;;;;;5117102;28;20047;-56
2022/10/04 12:24:49;;;;;;;10.52;4.03;;;17.80;98.60;;;;;;5110600;28;20035;-56
2022/10/04 12:27:41;;;;;;;5.85;3.20;;;17.80;98.90;;;;;;5109730;28;20035;-55
2022/10/04 12:30:19;;;;;;;9.27;4.78;;;17.80;98.90;;;;;;5119469;27;20123;-56
2022/10/04 12:33:10;;;;;;;9.93;4.20;;;17.80;98.50;;;;;;5112771;28;20453;-55
2022/10/04 12:35:38;;;;;;;9.48;4.78;;;17.80;98.90;;;;;;5112775;27;20039;-55
2022/10/04 12:38:14;;;;;;;7.72;3.97;;;17.90;99.40;;;;;;5103630;27;20035;-55
2022/10/04 12:41:10;;;;;;;8.77;4.00;;;17.90;98.70;;;;;;5115525;27;20046;-56
2022/10/04 12:43:55;;;;;;;7.18;4.38;;;17.90;99.00;;;;;;5121770;27;20035;-57
2022/10/04 12:46:32;;;;;;;11.45;4.63;;;18.00;99.10;;;;;;5126797;27;20040;-54
2022/10/04 12:49:19;;;;;;;7.95;5.03;;;18.10;98.90;;;;;;5128456;27;20036;-56
2022/10/04 12:52:10;;;;;;;6.82;5.03;;;18.10;98.70;;;;;;5118351;27;20036;-56
2022/10/04 12:54:42;;;;;;;9.77;5.40;;;18.00;98.70;;;;;;5111898;27;20035;-55
2022/10/04 12:57:44;;;;;;;8.68;4.00;;;18.00;98.80;;;;;;5113316;27;20105;-55
2022/10/04 13:00:13;;;;;;;6.63;4.10;;;18.00;98.30;;;;;;5122376;27;20043;-56
2022/10/04 13:02:50;;;;;;;11.30;3.88;;;18.10;98.70;;;;;;5118387;27;20039;-56
2022/10/04 13:05:21;;;;;;;;;;;18.10;98.30;;;;;;5122427;27;20043;-53
2022/10/04 13:08:02;;;;;;;6.43;4.25;;;18.20;98.30;;;;;;5115388;27;19998;-57
2022/10/04 13:10:54;;;;;;;11.63;3.85;;;18.30;98.10;;;;;;5116273;27;20023;-54
2022/10/04 13:13:35;;;;;;;5.80;3.38;;;18.30;97.60;;;;;;5111668;27;20036;-54
2022/10/04 13:16:31;;;;;;;9.23;4.43;;;18.20;98.10;;;;;;5119674;27;20036;-55
2022/10/04 13:19:22;;;;;;;9.43;4.65;;;18.20;97.80;;;;;;5111966;28;20056;-57
2022/10/04 13:22:18;;;;;;;8.65;4.47;;;18.20;97.10;;;;;;5112721;27;20039;-58
2022/10/04 13:24:56;;;;;;;9.65;4.35;;;18.10;97.00;;;;;;5115211;27;20079;-55
2022/10/04 13:27:37;;;;;;;10.15;4.22;;;18.00;97.20;;;;;;5114984;27;20063;-57
2022/10/04 13:30:23;;;;;;;7.40;3.97;;;18.00;97.50;;;;;;5118905;27;20381;-54
2022/10/04 13:33:13;;;;;;;10.68;4.05;;;18.00;97.90;;;;;;5113434;27;20067;-56
2022/10/04 13:36:04;;;;;;;5.75;3.47;;;18.00;97.20;;;;;;5119969;27;20173;-54
2022/10/04 13:38:57;;;;;;;8.20;3.88;;;18.00;96.80;;;;;;5112216;27;20639;-53
2022/10/04 13:41:34;;;;;;;5.18;3.72;;;17.90;96.60;;;;;;5115637;27;20043;-54
2022/10/04 13:44:37;;;;;;;10.60;3.67;;;17.70;96.30;;;;;;5123244;27;20031;-56
2022/10/04 13:47:18;;;;;;;11.77;3.95;;;17.60;96.70;;;;;;5115545;27;20039;-55
2022/10/04 13:50:13;;;;;;;6.32;4.05;;;17.50;96.50;;;;;;5111637;27;20043;-56
2022/10/04 13:58:54;;;;;;;8.25;5.15;;;17.40;97.00;;;;;;5089529;28;20047;-54
2022/10/04 14:01:36;;;;;;;7.18;4.90;;;17.60;97.80;;;;;;5120914;27;20091;-55